sensor_id;sensor_type;location;lat;lon;timestamp;temperature;humidity
6986;DHT22;3533;51.246;6.850;2023-04-28T00:00:46;18.30;43.20
6986;DHT22;3533;51.246;6.850;2023-04-28T00:03:12;18.30;43.20
6986;DHT22;3533;51.246;6.850;2023-04-28T00:05:37;18.20;43.10
6986;DHT22;3533;51.246;6.850;2023-04-28T00:08:03;18.30;43.20
6986;DHT22;3533;51.246;6.850;2023-04-28T00:10:33;18.30;43.20
6986;DHT22;3533;51.246;6.850;2023-04-28T00:12:59;18.20;43.10
6986;DHT22;3533;51.246;6.850;2023-04-28T00:15:25;18.30;43.20
6986;DHT22;3533;51.246;6.850;2023-04-28T00:17:50;18.30;43.20
6986;DHT22;3533;51.246;6.850;2023-04-28T00:20:16;18.30;43.20
6986;DHT22;3533;51.246;6.850;2023-04-28T00:22:42;18.20;43.10
6986;DHT22;3533;51.246;6.850;2023-04-28T00:25:08;18.20;43.10
6986;DHT22;3533;51.246;6.850;2023-04-28T00:27:34;18.30;43.20
6986;DHT22;3533;51.246;6.850;2023-04-28T00:30:00;18.20;43.10
6986;DHT22;3533;51.246;6.850;2023-04-28T00:32:25;18.20;43.10
6986;DHT22;3533;51.246;6.850;2023-04-28T00:34:51;18.30;43.20
6986;DHT22;3533;51.246;6.850;2023-04-28T00:37:17;18.30;43.20
6986;DHT22;3533;51.246;6.850;2023-04-28T00:39:43;18.30;43.20
6986;DHT22;3533;51.246;6.850;2023-04-28T00:42:12;18.30;43.20
6986;DHT22;3533;51.246;6.850;2023-04-28T00:44:38;18.30;43.20
6986;DHT22;3533;51.246;6.850;2023-04-28T00:47:05;18.20;43.10
6986;DHT22;3533;51.246;6.850;2023-04-28T00:49:30;18.20;43.10
6986;DHT22;3533;51.246;6.850;2023-04-28T00:51:59;18.20;43.10
6986;DHT22;3533;51.246;6.850;2023-04-28T00:54:29;18.20;43.10
6986;DHT22;3533;51.246;6.850;2023-04-28T00:56:55;18.20;43.10
6986;DHT22;3533;51.246;6.850;2023-04-28T00:59:21;18.30;43.20
6986;DHT22;3533;51.246;6.850;2023-04-28T01:01:46;18.20;43.10
6986;DHT22;3533;51.246;6.850;2023-04-28T01:04:13;18.20;43.10
6986;DHT22;3533;51.246;6.850;2023-04-28T01:06:40;18.20;43.10
6986;DHT22;3533;51.246;6.850;2023-04-28T01:09:06;18.20;43.10
6986;DHT22;3533;51.246;6.850;2023-04-28T01:11:32;18.20;43.10
6986;DHT22;3533;51.246;6.850;2023-04-28T01:13:57;18.20;43.10
6986;DHT22;3533;51.246;6.850;2023-04-28T01:16:24;18.20;43.10
6986;DHT22;3533;51.246;6.850;2023-04-28T01:18:51;18.20;43.10
6986;DHT22;3533;51.246;6.850;2023-04-28T01:21:31;18.20;43.10
6986;DHT22;3533;51.246;6.850;2023-04-28T01:24:00;18.20;43.10
6986;DHT22;3533;51.246;6.850;2023-04-28T01:26:26;18.20;43.10
6986;DHT22;3533;51.246;6.850;2023-04-28T01:28:52;18.20;43.10
6986;DHT22;3533;51.246;6.850;2023-04-28T01:31:17;18.20;43.10
6986;DHT22;3533;51.246;6.850;2023-04-28T01:33:43;18.20;43.10
6986;DHT22;3533;51.246;6.850;2023-04-28T01:36:08;18.20;43.10
6986;DHT22;3533;51.246;6.850;2023-04-28T01:38:34;18.20;43.10
6986;DHT22;3533;51.246;6.850;2023-04-28T01:41:00;18.20;43.10
6986;DHT22;3533;51.246;6.850;2023-04-28T01:43:27;18.20;43.10
6986;DHT22;3533;51.246;6.850;2023-04-28T01:45:52;18.20;43.10
6986;DHT22;3533;51.246;6.850;2023-04-28T01:48:18;18.20;43.10
6986;DHT22;3533;51.246;6.850;2023-04-28T01:50:43;18.20;43.20
6986;DHT22;3533;51.246;6.850;2023-04-28T01:53:09;18.20;43.10
6986;DHT22;3533;51.246;6.850;2023-04-28T01:55:34;18.20;43.20
6986;DHT22;3533;51.246;6.850;2023-04-28T01:58:00;18.20;43.20
6986;DHT22;3533;51.246;6.850;2023-04-28T02:00:25;18.20;43.20
6986;DHT22;3533;51.246;6.850;2023-04-28T02:02:51;18.20;43.20
6986;DHT22;3533;51.246;6.850;2023-04-28T02:05:17;18.20;43.20
6986;DHT22;3533;51.246;6.850;2023-04-28T02:07:42;18.20;43.20
6986;DHT22;3533;51.246;6.850;2023-04-28T02:10:08;18.20;43.20
6986;DHT22;3533;51.246;6.850;2023-04-28T02:12:34;18.20;44.00
6986;DHT22;3533;51.246;6.850;2023-04-28T02:14:59;18.20;43.30
6986;DHT22;3533;51.246;6.850;2023-04-28T02:17:25;18.20;43.30
6986;DHT22;3533;51.246;6.850;2023-04-28T02:19:57;18.20;43.40
6986;DHT22;3533;51.246;6.850;2023-04-28T02:22:23;18.20;43.30
6986;DHT22;3533;51.246;6.850;2023-04-28T02:24:48;18.20;43.40
6986;DHT22;3533;51.246;6.850;2023-04-28T02:27:14;18.20;43.30
6986;DHT22;3533;51.246;6.850;2023-04-28T02:29:39;18.20;43.40
6986;DHT22;3533;51.246;6.850;2023-04-28T02:32:06;18.20;43.40
6986;DHT22;3533;51.246;6.850;2023-04-28T02:34:32;18.20;43.40
6986;DHT22;3533;51.246;6.850;2023-04-28T02:36:57;18.20;43.40
6986;DHT22;3533;51.246;6.850;2023-04-28T02:39:23;18.20;43.40
6986;DHT22;3533;51.246;6.850;2023-04-28T02:41:54;18.20;43.50
6986;DHT22;3533;51.246;6.850;2023-04-28T02:44:20;18.20;43.40
6986;DHT22;3533;51.246;6.850;2023-04-28T02:46:45;18.20;43.40
6986;DHT22;3533;51.246;6.850;2023-04-28T02:49:11;18.20;43.50
6986;DHT22;3533;51.246;6.850;2023-04-28T02:51:37;18.20;43.50
6986;DHT22;3533;51.246;6.850;2023-04-28T02:54:02;18.20;43.50
6986;DHT22;3533;51.246;6.850;2023-04-28T02:56:29;18.20;43.60
6986;DHT22;3533;51.246;6.850;2023-04-28T02:58:55;18.20;43.60
6986;DHT22;3533;51.246;6.850;2023-04-28T03:01:20;18.20;43.50
6986;DHT22;3533;51.246;6.850;2023-04-28T03:03:46;18.20;43.60
6986;DHT22;3533;51.246;6.850;2023-04-28T03:06:11;18.20;43.60
6986;DHT22;3533;51.246;6.850;2023-04-28T03:08:37;18.20;43.60
6986;DHT22;3533;51.246;6.850;2023-04-28T03:11:02;18.20;43.60
6986;DHT22;3533;51.246;6.850;2023-04-28T03:13:28;18.20;43.60
6986;DHT22;3533;51.246;6.850;2023-04-28T03:15:54;18.20;43.60
6986;DHT22;3533;51.246;6.850;2023-04-28T03:18:20;18.20;43.60
6986;DHT22;3533;51.246;6.850;2023-04-28T03:20:47;18.20;44.40
6986;DHT22;3533;51.246;6.850;2023-04-28T03:23:12;18.20;43.60
6986;DHT22;3533;51.246;6.850;2023-04-28T03:25:38;18.20;43.60
6986;DHT22;3533;51.246;6.850;2023-04-28T03:28:04;18.20;43.70
6986;DHT22;3533;51.246;6.850;2023-04-28T03:30:30;18.20;43.60
6986;DHT22;3533;51.246;6.850;2023-04-28T03:32:55;18.20;43.70
6986;DHT22;3533;51.246;6.850;2023-04-28T03:35:21;18.20;43.70
6986;DHT22;3533;51.246;6.850;2023-04-28T03:37:46;18.20;43.70
6986;DHT22;3533;51.246;6.850;2023-04-28T03:40:12;18.20;43.70
6986;DHT22;3533;51.246;6.850;2023-04-28T03:42:38;18.20;43.70
6986;DHT22;3533;51.246;6.850;2023-04-28T03:45:03;18.20;43.70
6986;DHT22;3533;51.246;6.850;2023-04-28T03:47:29;18.20;43.70
6986;DHT22;3533;51.246;6.850;2023-04-28T03:49:55;18.20;43.70
6986;DHT22;3533;51.246;6.850;2023-04-28T03:52:23;18.20;43.70
6986;DHT22;3533;51.246;6.850;2023-04-28T03:54:48;18.20;43.70
6986;DHT22;3533;51.246;6.850;2023-04-28T03:57:14;18.20;43.70
6986;DHT22;3533;51.246;6.850;2023-04-28T03:59:39;18.20;43.70
6986;DHT22;3533;51.246;6.850;2023-04-28T04:02:05;18.20;43.70
6986;DHT22;3533;51.246;6.850;2023-04-28T04:04:30;18.20;43.80
6986;DHT22;3533;51.246;6.850;2023-04-28T04:06:56;18.20;43.80
6986;DHT22;3533;51.246;6.850;2023-04-28T04:09:21;18.20;43.70
6986;DHT22;3533;51.246;6.850;2023-04-28T04:11:47;18.20;43.70
6986;DHT22;3533;51.246;6.850;2023-04-28T04:14:13;18.20;43.80
6986;DHT22;3533;51.246;6.850;2023-04-28T04:16:38;18.20;43.80
6986;DHT22;3533;51.246;6.850;2023-04-28T04:19:04;18.20;43.80
6986;DHT22;3533;51.246;6.850;2023-04-28T04:21:29;18.20;43.80
6986;DHT22;3533;51.246;6.850;2023-04-28T04:23:56;18.20;43.80
6986;DHT22;3533;51.246;6.850;2023-04-28T04:26:21;18.20;43.80
6986;DHT22;3533;51.246;6.850;2023-04-28T04:28:47;18.20;43.80
6986;DHT22;3533;51.246;6.850;2023-04-28T04:31:12;18.20;43.80
6986;DHT22;3533;51.246;6.850;2023-04-28T04:33:38;18.20;43.80
6986;DHT22;3533;51.246;6.850;2023-04-28T04:36:04;18.20;43.80
6986;DHT22;3533;51.246;6.850;2023-04-28T04:38:29;18.20;44.00
6986;DHT22;3533;51.246;6.850;2023-04-28T04:40:55;18.20;44.00
6986;DHT22;3533;51.246;6.850;2023-04-28T04:43:21;18.20;43.80
6986;DHT22;3533;51.246;6.850;2023-04-28T04:45:46;18.20;43.80
6986;DHT22;3533;51.246;6.850;2023-04-28T04:48:12;18.20;43.80
6986;DHT22;3533;51.246;6.850;2023-04-28T04:50:39;18.20;43.80
6986;DHT22;3533;51.246;6.850;2023-04-28T04:53:05;18.20;43.80
6986;DHT22;3533;51.246;6.850;2023-04-28T04:55:30;18.20;43.80
6986;DHT22;3533;51.246;6.850;2023-04-28T04:57:56;18.30;43.90
6986;DHT22;3533;51.246;6.850;2023-04-28T05:00:21;18.30;43.80
6986;DHT22;3533;51.246;6.850;2023-04-28T05:02:47;18.20;43.80
6986;DHT22;3533;51.246;6.850;2023-04-28T05:05:13;18.20;43.70
6986;DHT22;3533;51.246;6.850;2023-04-28T05:07:38;18.30;44.60
6986;DHT22;3533;51.246;6.850;2023-04-28T05:10:04;18.20;43.80
6986;DHT22;3533;51.246;6.850;2023-04-28T05:12:31;18.30;43.80
6986;DHT22;3533;51.246;6.850;2023-04-28T05:14:57;18.30;43.80
6986;DHT22;3533;51.246;6.850;2023-04-28T05:17:22;18.30;43.80
6986;DHT22;3533;51.246;6.850;2023-04-28T05:19:48;18.30;43.80
6986;DHT22;3533;51.246;6.850;2023-04-28T05:22:13;18.30;43.80
6986;DHT22;3533;51.246;6.850;2023-04-28T05:24:39;18.30;43.80
6986;DHT22;3533;51.246;6.850;2023-04-28T05:27:04;18.30;43.80
6986;DHT22;3533;51.246;6.850;2023-04-28T05:29:30;18.30;43.80
6986;DHT22;3533;51.246;6.850;2023-04-28T05:31:55;18.30;43.80
6986;DHT22;3533;51.246;6.850;2023-04-28T05:34:21;18.30;43.80
6986;DHT22;3533;51.246;6.850;2023-04-28T05:36:46;18.30;43.80
6986;DHT22;3533;51.246;6.850;2023-04-28T05:39:12;18.30;43.70
6986;DHT22;3533;51.246;6.850;2023-04-28T05:41:38;18.30;43.80
6986;DHT22;3533;51.246;6.850;2023-04-28T05:44:03;18.30;43.70
6986;DHT22;3533;51.246;6.850;2023-04-28T05:46:30;18.30;43.70
6986;DHT22;3533;51.246;6.850;2023-04-28T05:48:56;18.30;43.70
6986;DHT22;3533;51.246;6.850;2023-04-28T05:51:22;18.30;43.70
6986;DHT22;3533;51.246;6.850;2023-04-28T05:53:47;18.30;43.70
6986;DHT22;3533;51.246;6.850;2023-04-28T05:56:14;18.30;43.70
6986;DHT22;3533;51.246;6.850;2023-04-28T05:58:40;18.30;43.80
6986;DHT22;3533;51.246;6.850;2023-04-28T06:01:06;18.30;43.70
6986;DHT22;3533;51.246;6.850;2023-04-28T06:03:31;18.30;43.70
6986;DHT22;3533;51.246;6.850;2023-04-28T06:05:57;18.30;43.70
6986;DHT22;3533;51.246;6.850;2023-04-28T06:08:22;18.30;43.80
6986;DHT22;3533;51.246;6.850;2023-04-28T06:10:48;18.30;43.70
6986;DHT22;3533;51.246;6.850;2023-04-28T06:13:13;18.30;43.70
6986;DHT22;3533;51.246;6.850;2023-04-28T06:15:39;18.30;43.70
6986;DHT22;3533;51.246;6.850;2023-04-28T06:18:05;18.30;43.70
6986;DHT22;3533;51.246;6.850;2023-04-28T06:20:31;18.30;43.70
6986;DHT22;3533;51.246;6.850;2023-04-28T06:22:57;18.30;43.80
6986;DHT22;3533;51.246;6.850;2023-04-28T06:25:23;18.30;43.80
6986;DHT22;3533;51.246;6.850;2023-04-28T06:27:48;18.30;43.80
6986;DHT22;3533;51.246;6.850;2023-04-28T06:30:17;18.30;43.80
6986;DHT22;3533;51.246;6.850;2023-04-28T06:32:44;18.30;43.80
6986;DHT22;3533;51.246;6.850;2023-04-28T06:35:10;18.30;43.70
6986;DHT22;3533;51.246;6.850;2023-04-28T06:37:35;18.30;43.80
6986;DHT22;3533;51.246;6.850;2023-04-28T06:40:01;18.30;43.80
6986;DHT22;3533;51.246;6.850;2023-04-28T06:42:26;18.30;43.80
6986;DHT22;3533;51.246;6.850;2023-04-28T06:44:52;18.30;43.80
6986;DHT22;3533;51.246;6.850;2023-04-28T06:47:17;18.30;43.80
6986;DHT22;3533;51.246;6.850;2023-04-28T06:49:43;18.30;43.80
6986;DHT22;3533;51.246;6.850;2023-04-28T06:52:09;18.30;43.90
6986;DHT22;3533;51.246;6.850;2023-04-28T06:54:35;18.30;43.80
6986;DHT22;3533;51.246;6.850;2023-04-28T06:57:02;18.30;43.80
6986;DHT22;3533;51.246;6.850;2023-04-28T06:59:28;18.30;43.80
6986;DHT22;3533;51.246;6.850;2023-04-28T07:01:53;18.30;43.80
6986;DHT22;3533;51.246;6.850;2023-04-28T07:04:19;18.30;43.80
6986;DHT22;3533;51.246;6.850;2023-04-28T07:06:44;18.30;43.80
6986;DHT22;3533;51.246;6.850;2023-04-28T07:09:10;18.30;43.80
6986;DHT22;3533;51.246;6.850;2023-04-28T07:11:35;18.30;43.80
6986;DHT22;3533;51.246;6.850;2023-04-28T07:14:01;18.30;43.80
6986;DHT22;3533;51.246;6.850;2023-04-28T07:16:27;18.30;43.80
6986;DHT22;3533;51.246;6.850;2023-04-28T07:18:52;18.40;43.90
6986;DHT22;3533;51.246;6.850;2023-04-28T07:21:18;18.40;43.90
6986;DHT22;3533;51.246;6.850;2023-04-28T07:23:44;18.40;43.90
6986;DHT22;3533;51.246;6.850;2023-04-28T07:26:10;18.30;43.80
6986;DHT22;3533;51.246;6.850;2023-04-28T07:28:35;18.30;43.80
6986;DHT22;3533;51.246;6.850;2023-04-28T07:31:01;18.30;43.80
6986;DHT22;3533;51.246;6.850;2023-04-28T07:33:27;18.40;43.90
6986;DHT22;3533;51.246;6.850;2023-04-28T07:35:52;18.40;43.80
6986;DHT22;3533;51.246;6.850;2023-04-28T07:38:18;18.30;43.80
6986;DHT22;3533;51.246;6.850;2023-04-28T07:40:45;18.40;43.90
6986;DHT22;3533;51.246;6.850;2023-04-28T07:43:11;18.30;43.80
6986;DHT22;3533;51.246;6.850;2023-04-28T07:45:39;18.40;43.90
6986;DHT22;3533;51.246;6.850;2023-04-28T07:48:05;18.40;43.90
6986;DHT22;3533;51.246;6.850;2023-04-28T07:50:31;18.30;43.80
6986;DHT22;3533;51.246;6.850;2023-04-28T07:52:57;18.40;43.90
6986;DHT22;3533;51.246;6.850;2023-04-28T07:55:23;18.40;44.00
6986;DHT22;3533;51.246;6.850;2023-04-28T07:57:49;18.30;43.80
6986;DHT22;3533;51.246;6.850;2023-04-28T08:00:15;18.40;43.90
6986;DHT22;3533;51.246;6.850;2023-04-28T08:02:40;18.40;43.90
6986;DHT22;3533;51.246;6.850;2023-04-28T08:05:06;18.30;43.80
6986;DHT22;3533;51.246;6.850;2023-04-28T08:07:33;18.30;43.80
6986;DHT22;3533;51.246;6.850;2023-04-28T08:09:59;18.40;44.00
6986;DHT22;3533;51.246;6.850;2023-04-28T08:12:25;18.30;43.80
6986;DHT22;3533;51.246;6.850;2023-04-28T08:14:51;18.40;43.90
6986;DHT22;3533;51.246;6.850;2023-04-28T08:17:17;18.40;43.90
6986;DHT22;3533;51.246;6.850;2023-04-28T08:19:42;18.40;43.90
6986;DHT22;3533;51.246;6.850;2023-04-28T08:22:11;18.40;44.00
6986;DHT22;3533;51.246;6.850;2023-04-28T08:24:36;18.40;44.00
6986;DHT22;3533;51.246;6.850;2023-04-28T08:27:02;18.40;43.90
6986;DHT22;3533;51.246;6.850;2023-04-28T08:29:31;18.40;43.90
6986;DHT22;3533;51.246;6.850;2023-04-28T08:31:57;18.40;43.90
6986;DHT22;3533;51.246;6.850;2023-04-28T08:34:23;18.40;43.90
6986;DHT22;3533;51.246;6.850;2023-04-28T08:36:50;18.30;43.90
6986;DHT22;3533;51.246;6.850;2023-04-28T08:39:15;18.40;43.90
6986;DHT22;3533;51.246;6.850;2023-04-28T08:41:41;18.40;44.00
6986;DHT22;3533;51.246;6.850;2023-04-28T08:44:10;18.40;44.00
6986;DHT22;3533;51.246;6.850;2023-04-28T08:46:39;18.40;44.00
6986;DHT22;3533;51.246;6.850;2023-04-28T08:49:16;18.40;44.00
6986;DHT22;3533;51.246;6.850;2023-04-28T08:51:58;18.40;44.00
6986;DHT22;3533;51.246;6.850;2023-04-28T08:54:30;18.40;44.00
6986;DHT22;3533;51.246;6.850;2023-04-28T08:56:57;18.40;44.00
6986;DHT22;3533;51.246;6.850;2023-04-28T08:59:23;18.40;44.00
6986;DHT22;3533;51.246;6.850;2023-04-28T09:01:49;18.30;43.90
6986;DHT22;3533;51.246;6.850;2023-04-28T09:04:18;18.40;44.00
6986;DHT22;3533;51.246;6.850;2023-04-28T09:06:44;18.30;43.90
6986;DHT22;3533;51.246;6.850;2023-04-28T09:09:24;18.40;44.10
6986;DHT22;3533;51.246;6.850;2023-04-28T09:11:52;18.30;43.90
6986;DHT22;3533;51.246;6.850;2023-04-28T09:14:18;18.40;44.10
6986;DHT22;3533;51.246;6.850;2023-04-28T09:16:43;18.40;44.00
6986;DHT22;3533;51.246;6.850;2023-04-28T09:19:09;18.40;44.00
6986;DHT22;3533;51.246;6.850;2023-04-28T09:21:54;18.40;44.10
6986;DHT22;3533;51.246;6.850;2023-04-28T09:24:27;18.40;44.00
6986;DHT22;3533;51.246;6.850;2023-04-28T09:26:54;18.40;44.00
6986;DHT22;3533;51.246;6.850;2023-04-28T09:29:19;18.40;44.00
6986;DHT22;3533;51.246;6.850;2023-04-28T09:31:45;18.40;44.20
6986;DHT22;3533;51.246;6.850;2023-04-28T09:34:10;18.40;44.10
6986;DHT22;3533;51.246;6.850;2023-04-28T09:36:36;18.40;44.10
6986;DHT22;3533;51.246;6.850;2023-04-28T09:39:02;18.40;44.10
6986;DHT22;3533;51.246;6.850;2023-04-28T09:41:41;18.40;44.10
6986;DHT22;3533;51.246;6.850;2023-04-28T09:44:15;18.40;44.10
6986;DHT22;3533;51.246;6.850;2023-04-28T09:46:42;18.40;44.10
6986;DHT22;3533;51.246;6.850;2023-04-28T09:49:09;18.40;44.10
6986;DHT22;3533;51.246;6.850;2023-04-28T09:51:34;18.40;44.10
6986;DHT22;3533;51.246;6.850;2023-04-28T09:54:01;18.40;44.10
6986;DHT22;3533;51.246;6.850;2023-04-28T09:56:28;18.40;44.10
6986;DHT22;3533;51.246;6.850;2023-04-28T09:58:59;18.30;44.00
6986;DHT22;3533;51.246;6.850;2023-04-28T10:01:36;18.40;44.10
6986;DHT22;3533;51.246;6.850;2023-04-28T10:04:05;18.40;44.10
6986;DHT22;3533;51.246;6.850;2023-04-28T10:06:33;18.40;44.20
6986;DHT22;3533;51.246;6.850;2023-04-28T10:09:02;18.40;44.20
6986;DHT22;3533;51.246;6.850;2023-04-28T10:11:29;18.40;44.20
6986;DHT22;3533;51.246;6.850;2023-04-28T10:13:55;18.30;44.10
6986;DHT22;3533;51.246;6.850;2023-04-28T10:16:21;18.40;44.20
6986;DHT22;3533;51.246;6.850;2023-04-28T10:18:48;18.40;44.10
6986;DHT22;3533;51.246;6.850;2023-04-28T10:21:17;18.40;44.20
6986;DHT22;3533;51.246;6.850;2023-04-28T10:23:56;18.40;44.20
6986;DHT22;3533;51.246;6.850;2023-04-28T10:27:12;18.30;44.10
6986;DHT22;3533;51.246;6.850;2023-04-28T10:29:24;18.40;44.20
6986;DHT22;3533;51.246;6.850;2023-04-28T10:32:13;18.40;44.20
6986;DHT22;3533;51.246;6.850;2023-04-28T10:34:39;18.40;44.20
6986;DHT22;3533;51.246;6.850;2023-04-28T10:37:05;18.30;44.20
6986;DHT22;3533;51.246;6.850;2023-04-28T10:39:30;18.30;44.20
6986;DHT22;3533;51.246;6.850;2023-04-28T10:41:56;18.30;44.10
6986;DHT22;3533;51.246;6.850;2023-04-28T10:47:05;18.40;44.30
6986;DHT22;3533;51.246;6.850;2023-04-28T11:00:52;18.30;44.20
6986;DHT22;3533;51.246;6.850;2023-04-28T11:06:33;18.30;44.20
6986;DHT22;3533;51.246;6.850;2023-04-28T11:12:03;18.30;44.30
6986;DHT22;3533;51.246;6.850;2023-04-28T11:14:36;18.30;44.20
6986;DHT22;3533;51.246;6.850;2023-04-28T11:17:06;18.30;44.20
6986;DHT22;3533;51.246;6.850;2023-04-28T11:19:33;18.30;45.10
6986;DHT22;3533;51.246;6.850;2023-04-28T11:22:25;18.30;44.30
6986;DHT22;3533;51.246;6.850;2023-04-28T11:24:55;18.30;44.30
6986;DHT22;3533;51.246;6.850;2023-04-28T11:27:28;18.30;44.30
6986;DHT22;3533;51.246;6.850;2023-04-28T11:29:54;18.30;44.30
6986;DHT22;3533;51.246;6.850;2023-04-28T11:34:52;18.30;45.10
6986;DHT22;3533;51.246;6.850;2023-04-28T11:37:18;18.30;44.30
6986;DHT22;3533;51.246;6.850;2023-04-28T11:39:45;18.30;44.30
6986;DHT22;3533;51.246;6.850;2023-04-28T11:42:11;18.30;44.30
6986;DHT22;3533;51.246;6.850;2023-04-28T11:44:37;18.30;44.30
6986;DHT22;3533;51.246;6.850;2023-04-28T11:47:03;18.30;44.30
6986;DHT22;3533;51.246;6.850;2023-04-28T11:49:51;18.30;44.30
6986;DHT22;3533;51.246;6.850;2023-04-28T11:52:16;18.30;45.10
6986;DHT22;3533;51.246;6.850;2023-04-28T11:54:41;18.30;44.40
6986;DHT22;3533;51.246;6.850;2023-04-28T11:57:19;18.40;44.60
6986;DHT22;3533;51.246;6.850;2023-04-28T11:59:45;18.30;44.30
6986;DHT22;3533;51.246;6.850;2023-04-28T12:02:11;18.30;44.40
6986;DHT22;3533;51.246;6.850;2023-04-28T12:04:39;18.30;44.40
6986;DHT22;3533;51.246;6.850;2023-04-28T12:07:18;18.30;44.40
6986;DHT22;3533;51.246;6.850;2023-04-28T12:09:46;18.30;44.50
6986;DHT22;3533;51.246;6.850;2023-04-28T12:12:15;18.30;44.50
6986;DHT22;3533;51.246;6.850;2023-04-28T12:15:02;18.30;44.40
6986;DHT22;3533;51.246;6.850;2023-04-28T12:17:38;18.40;44.50
6986;DHT22;3533;51.246;6.850;2023-04-28T12:20:06;18.30;44.50
6986;DHT22;3533;51.246;6.850;2023-04-28T12:22:48;18.30;44.50
6986;DHT22;3533;51.246;6.850;2023-04-28T12:25:16;18.30;44.50
6986;DHT22;3533;51.246;6.850;2023-04-28T12:28:02;18.30;44.50
6986;DHT22;3533;51.246;6.850;2023-04-28T12:30:30;18.30;44.50
6986;DHT22;3533;51.246;6.850;2023-04-28T12:32:55;18.40;44.60
6986;DHT22;3533;51.246;6.850;2023-04-28T12:35:22;18.40;44.60
6986;DHT22;3533;51.246;6.850;2023-04-28T12:37:48;18.30;44.60
6986;DHT22;3533;51.246;6.850;2023-04-28T12:40:14;18.40;44.60
6986;DHT22;3533;51.246;6.850;2023-04-28T12:42:40;18.40;44.70
6986;DHT22;3533;51.246;6.850;2023-04-28T12:45:06;18.40;44.60
6986;DHT22;3533;51.246;6.850;2023-04-28T12:47:32;18.40;44.70
6986;DHT22;3533;51.246;6.850;2023-04-28T12:49:57;18.40;44.70
6986;DHT22;3533;51.246;6.850;2023-04-28T12:52:23;18.40;44.70
6986;DHT22;3533;51.246;6.850;2023-04-28T12:54:48;18.30;44.60
6986;DHT22;3533;51.246;6.850;2023-04-28T12:57:18;18.40;44.60
6986;DHT22;3533;51.246;6.850;2023-04-28T12:59:46;18.40;44.70
6986;DHT22;3533;51.246;6.850;2023-04-28T13:02:12;18.40;44.70
6986;DHT22;3533;51.246;6.850;2023-04-28T13:04:39;18.40;44.70
6986;DHT22;3533;51.246;6.850;2023-04-28T13:07:07;18.40;44.70
6986;DHT22;3533;51.246;6.850;2023-04-28T13:09:32;18.40;45.50
6986;DHT22;3533;51.246;6.850;2023-04-28T13:11:58;18.30;44.60
6986;DHT22;3533;51.246;6.850;2023-04-28T13:14:24;18.40;44.80
6986;DHT22;3533;51.246;6.850;2023-04-28T13:16:51;18.40;44.80
6986;DHT22;3533;51.246;6.850;2023-04-28T13:19:17;18.40;44.80
6986;DHT22;3533;51.246;6.850;2023-04-28T13:21:43;18.40;44.80
6986;DHT22;3533;51.246;6.850;2023-04-28T13:24:11;18.30;44.70
6986;DHT22;3533;51.246;6.850;2023-04-28T13:26:38;18.40;44.80
6986;DHT22;3533;51.246;6.850;2023-04-28T13:29:04;18.40;44.80
6986;DHT22;3533;51.246;6.850;2023-04-28T13:31:30;18.40;44.80
6986;DHT22;3533;51.246;6.850;2023-04-28T13:33:56;18.40;44.80
6986;DHT22;3533;51.246;6.850;2023-04-28T13:36:22;18.30;44.80
6986;DHT22;3533;51.246;6.850;2023-04-28T13:38:48;18.30;44.80
6986;DHT22;3533;51.246;6.850;2023-04-28T13:41:15;18.40;44.80
6986;DHT22;3533;51.246;6.850;2023-04-28T13:43:40;18.30;44.70
6986;DHT22;3533;51.246;6.850;2023-04-28T13:46:06;18.40;44.80
6986;DHT22;3533;51.246;6.850;2023-04-28T13:48:37;18.40;44.90
6986;DHT22;3533;51.246;6.850;2023-04-28T13:51:03;18.40;44.80
6986;DHT22;3533;51.246;6.850;2023-04-28T13:53:30;18.40;45.00
6986;DHT22;3533;51.246;6.850;2023-04-28T13:55:56;18.40;44.80
6986;DHT22;3533;51.246;6.850;2023-04-28T13:58:25;18.40;44.90
6986;DHT22;3533;51.246;6.850;2023-04-28T14:00:54;18.40;44.80
6986;DHT22;3533;51.246;6.850;2023-04-28T14:03:21;18.40;44.90
6986;DHT22;3533;51.246;6.850;2023-04-28T14:05:52;18.40;44.90
6986;DHT22;3533;51.246;6.850;2023-04-28T14:08:18;18.40;44.90
6986;DHT22;3533;51.246;6.850;2023-04-28T14:10:44;18.40;44.90
6986;DHT22;3533;51.246;6.850;2023-04-28T14:13:09;18.40;44.90
6986;DHT22;3533;51.246;6.850;2023-04-28T14:15:35;18.40;44.90
6986;DHT22;3533;51.246;6.850;2023-04-28T14:18:01;18.40;44.90
6986;DHT22;3533;51.246;6.850;2023-04-28T14:20:27;18.40;44.90
6986;DHT22;3533;51.246;6.850;2023-04-28T14:22:53;18.40;44.90
6986;DHT22;3533;51.246;6.850;2023-04-28T14:25:18;18.40;45.00
6986;DHT22;3533;51.246;6.850;2023-04-28T14:27:44;18.40;45.00
6986;DHT22;3533;51.246;6.850;2023-04-28T14:30:10;18.40;45.00
6986;DHT22;3533;51.246;6.850;2023-04-28T14:32:36;18.40;45.00
6986;DHT22;3533;51.246;6.850;2023-04-28T14:35:03;18.40;45.00
6986;DHT22;3533;51.246;6.850;2023-04-28T14:37:33;18.40;45.00
6986;DHT22;3533;51.246;6.850;2023-04-28T14:39:59;18.40;45.00
6986;DHT22;3533;51.246;6.850;2023-04-28T14:42:29;18.40;45.10
6986;DHT22;3533;51.246;6.850;2023-04-28T14:44:56;18.40;45.00
6986;DHT22;3533;51.246;6.850;2023-04-28T14:47:22;18.40;45.00
6986;DHT22;3533;51.246;6.850;2023-04-28T14:49:49;18.30;45.30
6986;DHT22;3533;51.246;6.850;2023-04-28T14:52:14;18.40;45.10
6986;DHT22;3533;51.246;6.850;2023-04-28T14:54:40;18.40;45.10
6986;DHT22;3533;51.246;6.850;2023-04-28T14:57:06;18.40;45.10
6986;DHT22;3533;51.246;6.850;2023-04-28T14:59:31;18.30;45.00
6986;DHT22;3533;51.246;6.850;2023-04-28T15:01:57;18.30;45.00
6986;DHT22;3533;51.246;6.850;2023-04-28T15:04:22;18.40;45.10
6986;DHT22;3533;51.246;6.850;2023-04-28T15:06:55;18.40;45.00
6986;DHT22;3533;51.246;6.850;2023-04-28T15:09:21;18.40;45.00
6986;DHT22;3533;51.246;6.850;2023-04-28T15:11:47;18.40;45.00
6986;DHT22;3533;51.246;6.850;2023-04-28T15:14:12;18.40;45.00
6986;DHT22;3533;51.246;6.850;2023-04-28T15:16:38;18.40;44.90
6986;DHT22;3533;51.246;6.850;2023-04-28T15:19:04;18.40;44.90
6986;DHT22;3533;51.246;6.850;2023-04-28T15:21:30;18.40;44.80
6986;DHT22;3533;51.246;6.850;2023-04-28T15:23:56;18.40;44.90
6986;DHT22;3533;51.246;6.850;2023-04-28T15:26:24;18.40;44.90
6986;DHT22;3533;51.246;6.850;2023-04-28T15:28:50;18.40;44.80
6986;DHT22;3533;51.246;6.850;2023-04-28T15:31:15;18.40;44.80
6986;DHT22;3533;51.246;6.850;2023-04-28T15:33:41;18.40;44.80
6986;DHT22;3533;51.246;6.850;2023-04-28T15:36:07;18.40;44.90
6986;DHT22;3533;51.246;6.850;2023-04-28T15:38:32;18.40;44.90
6986;DHT22;3533;51.246;6.850;2023-04-28T15:40:59;18.40;45.00
6986;DHT22;3533;51.246;6.850;2023-04-28T15:43:24;18.40;45.00
6986;DHT22;3533;51.246;6.850;2023-04-28T15:45:50;18.40;45.00
6986;DHT22;3533;51.246;6.850;2023-04-28T15:48:16;18.40;45.00
6986;DHT22;3533;51.246;6.850;2023-04-28T15:50:42;18.40;45.00
6986;DHT22;3533;51.246;6.850;2023-04-28T15:53:07;18.40;45.10
6986;DHT22;3533;51.246;6.850;2023-04-28T15:55:33;18.40;45.00
6986;DHT22;3533;51.246;6.850;2023-04-28T15:57:59;18.40;45.10
6986;DHT22;3533;51.246;6.850;2023-04-28T16:00:25;18.40;45.10
6986;DHT22;3533;51.246;6.850;2023-04-28T16:02:50;18.40;45.10
6986;DHT22;3533;51.246;6.850;2023-04-28T16:05:16;18.40;45.10
6986;DHT22;3533;51.246;6.850;2023-04-28T16:07:42;18.40;45.10
6986;DHT22;3533;51.246;6.850;2023-04-28T16:10:10;18.40;45.10
6986;DHT22;3533;51.246;6.850;2023-04-28T16:12:36;18.40;45.10
6986;DHT22;3533;51.246;6.850;2023-04-28T16:15:03;18.40;45.10
6986;DHT22;3533;51.246;6.850;2023-04-28T16:17:29;18.40;45.10
6986;DHT22;3533;51.246;6.850;2023-04-28T16:19:55;18.40;45.10
6986;DHT22;3533;51.246;6.850;2023-04-28T16:22:21;18.40;45.10